createdAt,value
2023-05-14T00:00:59.913Z,87.16
2023-05-14T00:01:59.951Z,87.57
2023-05-14T00:02:59.975Z,86.55
2023-05-14T00:04:00.092Z,87.26
2023-05-14T00:04:59.836Z,86.44
2023-05-14T00:05:59.844Z,87.16
2023-05-14T00:06:59.820Z,86.75
2023-05-14T00:07:59.826Z,86.20
2023-05-14T00:08:59.798Z,85.69
2023-05-14T00:09:59.770Z,85.38
2023-05-14T00:10:59.772Z,85.58
2023-05-14T00:11:59.754Z,84.97
2023-05-14T00:12:59.771Z,85.17
2023-05-14T00:13:59.731Z,85.34
2023-05-14T00:14:59.716Z,85.34
2023-05-14T00:15:59.726Z,85.44
2023-05-14T00:16:59.688Z,84.93
2023-05-14T00:17:59.705Z,85.03
2023-05-14T00:18:59.703Z,85.48
2023-05-14T00:19:59.657Z,85.55
2023-05-14T00:20:59.627Z,85.38
2023-05-14T00:21:59.644Z,85.69
2023-05-14T00:22:59.605Z,86.75
2023-05-14T00:23:59.633Z,86.75
2023-05-14T00:24:59.606Z,87.77
2023-05-14T00:25:59.603Z,87.06
2023-05-14T00:26:59.567Z,87.37
2023-05-14T00:27:59.588Z,87.06
2023-05-14T00:28:59.577Z,86.85
2023-05-14T00:29:59.529Z,87.51
2023-05-14T00:30:59.572Z,87.10
2023-05-14T00:31:59.526Z,87.57
2023-05-14T00:32:59.565Z,87.77
2023-05-14T00:33:59.505Z,87.51
2023-05-14T00:34:59.540Z,87.37
2023-05-14T00:35:59.484Z,88.39
2023-05-14T00:36:59.447Z,87.98
2023-05-14T00:37:59.446Z,87.98
2023-05-14T00:38:59.435Z,87.88
2023-05-14T00:39:59.458Z,87.67
2023-05-14T00:40:59.403Z,87.51
2023-05-14T00:41:59.408Z,88.08
2023-05-14T00:42:59.390Z,87.98
2023-05-14T00:43:59.372Z,87.98
2023-05-14T00:44:59.370Z,87.67
2023-05-14T00:45:59.410Z,87.98
2023-05-14T00:46:59.503Z,87.88
2023-05-14T00:47:59.359Z,87.77
2023-05-14T00:48:59.297Z,87.47
2023-05-14T00:49:59.295Z,88.08
2023-05-14T00:50:59.332Z,88.08
2023-05-14T00:51:59.271Z,88.08
2023-05-14T00:52:59.262Z,87.98
2023-05-14T00:53:59.258Z,88.49
2023-05-14T00:55:00.231Z,87.88
2023-05-14T00:55:59.265Z,88.29
2023-05-14T00:56:59.215Z,88.08
2023-05-14T00:57:59.204Z,88.08
2023-05-14T00:58:59.187Z,88.12
2023-05-14T00:59:59.170Z,88.53
2023-05-14T01:00:59.155Z,88.02
2023-05-14T01:01:59.194Z,89.04
2023-05-14T01:02:59.185Z,89.04
2023-05-14T01:03:59.288Z,89.36
2023-05-14T01:04:59.132Z,89.15
2023-05-14T01:05:59.109Z,88.70
2023-05-14T01:06:59.129Z,88.64
2023-05-14T01:07:59.302Z,88.39
2023-05-14T01:08:59.076Z,88.18
2023-05-14T01:09:59.058Z,88.18
2023-05-14T01:10:59.032Z,88.49
2023-05-14T01:11:59.108Z,88.80
2023-05-14T01:12:59.042Z,89.11
2023-05-14T01:13:59.017Z,89.15
2023-05-14T01:14:58.993Z,89.25
2023-05-14T01:15:59.050Z,89.45
2023-05-14T01:16:59.178Z,90.07
2023-05-14T01:17:59.039Z,89.87
2023-05-14T01:18:58.967Z,89.56
2023-05-14T01:19:58.943Z,90.52
2023-05-14T01:20:58.909Z,90.11
2023-05-14T01:21:58.957Z,90.11
2023-05-14T01:22:58.945Z,90.52
2023-05-14T01:23:58.894Z,90.42
2023-05-14T01:24:58.899Z,90.62
2023-05-14T01:25:58.852Z,90.28
2023-05-14T01:26:58.855Z,90.11
2023-05-14T01:27:58.881Z,90.52
2023-05-14T01:28:58.824Z,90.42
2023-05-14T01:29:58.828Z,90.52
2023-05-14T01:30:58.821Z,90.62
2023-05-14T01:31:58.822Z,90.73
2023-05-14T01:32:58.835Z,90.93
2023-05-14T01:33:58.793Z,91.38
2023-05-14T01:34:58.756Z,91.03
2023-05-14T01:35:58.808Z,91.03
2023-05-14T01:36:58.736Z,91.49
2023-05-14T01:37:58.706Z,91.18
2023-05-14T01:38:59.743Z,91.38
2023-05-14T01:39:58.687Z,91.69
2023-05-14T01:40:58.673Z,91.44
2023-05-14T01:41:58.679Z,91.65
2023-05-14T01:42:58.685Z,91.35
2023-05-14T01:43:58.678Z,90.93
2023-05-14T01:44:58.649Z,90.58
2023-05-14T01:45:58.673Z,90.83
2023-05-14T01:46:58.627Z,90.73
2023-05-14T01:47:58.678Z,90.48
2023-05-14T01:48:58.643Z,90.52
2023-05-14T01:49:58.641Z,90.83
2023-05-14T01:50:58.615Z,90.83
2023-05-14T01:51:58.635Z,90.83
2023-05-14T01:52:58.654Z,90.69
2023-05-14T01:53:58.614Z,90.79
2023-05-14T01:54:58.569Z,90.32
2023-05-14T01:55:58.601Z,90.32
2023-05-14T01:56:58.520Z,90.42
2023-05-14T01:57:58.481Z,90.32
2023-05-14T01:58:58.573Z,90.52
2023-05-14T01:59:58.461Z,90.07
2023-05-14T02:00:58.486Z,90.52
2023-05-14T02:01:58.649Z,90.01
2023-05-14T02:02:59.024Z,90.32
2023-05-14T02:03:58.464Z,90.42
2023-05-14T02:04:58.426Z,90.52
2023-05-14T02:05:58.391Z,90.42
2023-05-14T02:06:58.374Z,90.46
2023-05-14T02:07:58.358Z,90.77
2023-05-14T02:08:58.369Z,90.73
2023-05-14T02:09:58.357Z,90.83
2023-05-14T02:10:58.345Z,91.18
2023-05-14T02:11:58.814Z,91.14
2023-05-14T02:12:58.335Z,90.77
2023-05-14T02:13:58.324Z,91.08
2023-05-14T02:14:58.288Z,91.08
2023-05-14T02:15:58.401Z,91.28
2023-05-14T02:16:58.293Z,91.90
2023-05-14T02:17:58.261Z,92.10
2023-05-14T02:18:58.318Z,91.80
2023-05-14T02:19:58.239Z,91.90
2023-05-14T02:20:58.204Z,91.38
2023-05-14T02:21:58.200Z,91.69
2023-05-14T02:22:58.222Z,91.90
2023-05-14T02:23:58.209Z,92.14
2023-05-14T02:24:58.180Z,93.17
2023-05-14T02:25:58.378Z,92.93
2023-05-14T02:26:58.144Z,92.93
2023-05-14T02:27:58.115Z,93.13
2023-05-14T02:28:58.131Z,92.51
2023-05-14T02:29:58.161Z,93.02
2023-05-14T02:30:58.123Z,92.51
2023-05-14T02:31:58.106Z,93.07
2023-05-14T02:32:58.136Z,93.59
2023-05-14T02:33:58.078Z,93.17
2023-05-14T02:34:58.086Z,93.59
2023-05-14T02:35:58.057Z,93.38
2023-05-14T02:36:58.010Z,93.46
2023-05-14T02:37:58.015Z,94.70
2023-05-14T02:38:58.091Z,94.80
2023-05-14T02:39:57.997Z,94.80
2023-05-14T02:40:58.008Z,95.37
2023-05-14T02:41:57.954Z,94.85
2023-05-14T02:42:57.966Z,94.76
2023-05-14T02:43:57.931Z,95.17
2023-05-14T02:44:57.921Z,94.51
2023-05-14T02:45:57.954Z,94.24
2023-05-14T02:46:57.934Z,94.40
2023-05-14T02:47:57.958Z,93.99
2023-05-14T02:48:57.888Z,94.10
2023-05-14T02:49:57.874Z,94.20
2023-05-14T02:50:57.857Z,93.59
2023-05-14T02:51:57.897Z,93.38
2023-05-14T02:52:57.842Z,93.48
2023-05-14T02:53:57.815Z,93.99
2023-05-14T02:54:57.804Z,94.85
2023-05-14T02:55:57.807Z,94.65
2023-05-14T02:56:57.812Z,94.65
2023-05-14T02:57:57.773Z,94.55
2023-05-14T02:58:57.774Z,94.51
2023-05-14T02:59:57.742Z,94.30
2023-05-14T03:00:57.782Z,94.51
2023-05-14T03:01:57.743Z,94.45
2023-05-14T03:02:57.716Z,94.24
2023-05-14T03:03:57.706Z,94.04
2023-05-14T03:04:57.694Z,94.55
2023-05-14T03:05:57.686Z,94.14
2023-05-14T03:06:58.504Z,94.04
2023-05-14T03:07:57.644Z,93.93
2023-05-14T03:08:57.648Z,94.70
2023-05-14T03:09:57.639Z,95.62
2023-05-14T03:10:57.638Z,94.90
2023-05-14T03:11:57.624Z,95.52
2023-05-14T03:12:57.598Z,95.10
2023-05-14T03:13:57.576Z,95.72
2023-05-14T03:14:57.577Z,95.89
2023-05-14T03:15:57.574Z,95.42
2023-05-14T03:16:57.666Z,95.62
2023-05-14T03:17:57.548Z,95.01
2023-05-14T03:18:57.583Z,95.10
2023-05-14T03:19:57.505Z,95.42
2023-05-14T03:20:58.567Z,95.27
2023-05-14T03:21:57.468Z,95.27
2023-05-14T03:22:57.467Z,94.55
2023-05-14T03:23:57.492Z,94.45
2023-05-14T03:24:57.441Z,94.55
2023-05-14T03:25:57.442Z,94.45
2023-05-14T03:26:57.479Z,94.34
2023-05-14T03:27:57.406Z,94.34
2023-05-14T03:28:57.397Z,94.04
2023-05-14T03:29:57.416Z,94.70
2023-05-14T03:30:57.379Z,94.59
2023-05-14T03:31:57.403Z,95.31
2023-05-14T03:32:58.388Z,95.42
2023-05-14T03:33:57.342Z,95.31
2023-05-14T03:34:57.327Z,95.83
2023-05-14T03:35:57.321Z,95.31
2023-05-14T03:36:57.305Z,95.27
2023-05-14T03:37:57.317Z,94.85
2023-05-14T03:38:57.272Z,95.68
2023-05-14T03:39:57.254Z,95.02
2023-05-14T03:40:57.257Z,94.20
2023-05-14T03:41:57.268Z,94.67
2023-05-14T03:42:57.337Z,94.46
2023-05-14T03:43:57.224Z,93.70
2023-05-14T03:44:57.196Z,92.88
2023-05-14T03:45:57.188Z,92.94
2023-05-14T03:46:57.203Z,92.74
2023-05-14T03:47:57.267Z,92.32
2023-05-14T03:48:57.207Z,92.38
2023-05-14T03:49:57.163Z,92.08
2023-05-14T03:50:57.139Z,91.77
2023-05-14T03:51:57.149Z,91.77
2023-05-14T03:52:57.101Z,91.46
2023-05-14T03:53:57.127Z,91.26
2023-05-14T03:54:57.081Z,91.56
2023-05-14T03:55:57.068Z,91.36
2023-05-14T03:56:57.069Z,91.36
2023-05-14T03:57:57.064Z,91.26
2023-05-14T03:58:57.066Z,91.26
2023-05-14T03:59:57.045Z,90.95
2023-05-14T04:00:57.028Z,91.01
2023-05-14T04:01:57.107Z,90.91
2023-05-14T04:02:57.034Z,90.91
2023-05-14T04:03:57.139Z,90.81
2023-05-14T04:04:57.002Z,90.70
2023-05-14T04:05:56.961Z,90.81
2023-05-14T04:06:56.958Z,90.70
2023-05-14T04:07:56.962Z,91.52
2023-05-14T04:08:56.979Z,91.46
2023-05-14T04:09:56.917Z,91.46
2023-05-14T04:10:56.947Z,91.31
2023-05-14T04:11:56.890Z,91.52
2023-05-14T04:12:56.914Z,90.70
2023-05-14T04:13:56.882Z,90.60
2023-05-14T04:14:56.866Z,90.91
2023-05-14T04:15:56.879Z,90.30
2023-05-14T04:16:56.835Z,90.36
2023-05-14T04:17:56.875Z,90.05
2023-05-14T04:18:56.894Z,90.50
2023-05-14T04:19:56.809Z,90.15
2023-05-14T04:20:56.799Z,90.05
2023-05-14T04:21:57.761Z,90.15
2023-05-14T04:22:56.765Z,89.94
2023-05-14T04:23:56.751Z,89.94
2023-05-14T04:24:56.733Z,90.15
2023-05-14T04:25:56.729Z,90.15
2023-05-14T04:26:56.708Z,90.00
2023-05-14T04:27:56.707Z,89.84
2023-05-14T04:28:56.702Z,89.94
2023-05-14T04:29:56.697Z,90.05
2023-05-14T04:30:56.679Z,89.90
2023-05-14T04:31:56.673Z,90.00
2023-05-14T04:32:56.712Z,90.15
2023-05-14T04:33:56.718Z,90.25
2023-05-14T04:34:56.672Z,90.15
2023-05-14T04:35:56.617Z,89.74
2023-05-14T04:36:56.641Z,89.94
2023-05-14T04:37:56.595Z,89.90
2023-05-14T04:38:56.672Z,90.00
2023-05-14T04:39:56.568Z,89.39
2023-05-14T04:40:56.574Z,89.29
2023-05-14T04:41:56.551Z,89.50
2023-05-14T04:42:56.614Z,89.35
2023-05-14T04:43:56.793Z,89.39
2023-05-14T04:44:56.670Z,89.39
2023-05-14T04:45:56.742Z,89.35
2023-05-14T04:46:56.534Z,88.84
2023-05-14T04:47:56.602Z,88.64
2023-05-14T04:48:56.523Z,88.94
2023-05-14T04:49:56.501Z,89.04
2023-05-14T04:50:56.460Z,88.94
2023-05-14T04:51:56.514Z,88.74
2023-05-14T04:52:56.657Z,88.64
2023-05-14T04:53:56.534Z,88.53
2023-05-14T04:54:56.480Z,88.74
2023-05-14T04:55:56.469Z,88.64
2023-05-14T04:56:56.867Z,88.84
2023-05-14T04:57:56.441Z,89.04
2023-05-14T04:58:56.415Z,88.70
2023-05-14T04:59:56.352Z,88.29
2023-05-14T05:00:56.391Z,87.98
2023-05-14T05:01:56.380Z,88.29
2023-05-14T05:02:56.321Z,87.12
2023-05-14T05:03:56.343Z,87.63
2023-05-14T05:04:56.307Z,87.12
2023-05-14T05:05:56.637Z,87.26
2023-05-14T05:06:56.258Z,86.61
2023-05-14T05:07:56.292Z,86.91
2023-05-14T05:08:56.289Z,86.41
2023-05-14T05:09:56.257Z,86.71
2023-05-14T05:10:56.210Z,86.26
2023-05-14T05:11:56.217Z,86.06
2023-05-14T05:12:56.201Z,87.18
2023-05-14T05:13:56.236Z,85.69
2023-05-14T05:14:56.185Z,86.26
2023-05-14T05:15:56.225Z,87.18
2023-05-14T05:16:56.163Z,85.69
2023-05-14T05:17:56.159Z,87.08
2023-05-14T05:18:56.139Z,87.18
2023-05-14T05:19:56.145Z,86.16
2023-05-14T05:20:56.136Z,86.06
2023-05-14T05:21:56.245Z,86.06
2023-05-14T05:22:56.123Z,84.74
2023-05-14T05:23:57.069Z,85.61
2023-05-14T05:24:56.095Z,85.00
2023-05-14T05:25:56.057Z,85.10
2023-05-14T05:26:56.050Z,84.80
2023-05-14T05:27:56.089Z,85.10
2023-05-14T05:28:56.036Z,84.90
2023-05-14T05:29:55.996Z,85.21
2023-05-14T05:30:56.015Z,85.24
2023-05-14T05:31:56.066Z,85.51
2023-05-14T05:32:56.056Z,85.21
2023-05-14T05:33:55.957Z,87.96
2023-05-14T05:34:55.978Z,88.78
2023-05-14T05:35:55.952Z,89.73
2023-05-14T05:36:55.920Z,88.41
2023-05-14T05:37:55.891Z,89.06
2023-05-14T05:38:56.967Z,89.23
2023-05-14T05:39:55.892Z,89.32
2023-05-14T05:40:55.891Z,89.23
2023-05-14T05:41:55.856Z,89.18
2023-05-14T05:42:55.873Z,88.98
2023-05-14T05:43:55.847Z,88.32
2023-05-14T05:44:55.840Z,87.55
2023-05-14T05:45:55.854Z,86.29
2023-05-14T05:46:55.916Z,84.75
2023-05-14T05:47:56.009Z,84.96
2023-05-14T05:48:55.804Z,85.16
2023-05-14T05:49:55.819Z,84.75
2023-05-14T05:50:55.832Z,84.72
2023-05-14T05:51:56.490Z,84.72
2023-05-14T05:52:55.760Z,84.61
2023-05-14T05:53:55.744Z,84.82
2023-05-14T05:54:55.727Z,84.25
2023-05-14T05:55:55.710Z,84.90
2023-05-14T05:56:55.758Z,85.37
2023-05-14T05:57:55.677Z,85.16
2023-05-14T05:58:55.698Z,85.27
2023-05-14T05:59:55.672Z,84.55
2023-05-14T06:00:56.371Z,84.75
2023-05-14T06:01:55.673Z,84.96
2023-05-14T06:02:55.690Z,84.61
2023-05-14T06:03:55.644Z,83.94
2023-05-14T06:04:55.688Z,84.41
2023-05-14T06:05:55.623Z,83.59
2023-05-14T06:06:55.578Z,84.61
2023-05-14T06:07:55.636Z,84.61
2023-05-14T06:08:55.575Z,84.25
2023-05-14T06:09:55.546Z,85.94
2023-05-14T06:10:55.548Z,88.22
2023-05-14T06:11:55.539Z,88.73
2023-05-14T06:12:55.550Z,87.92
2023-05-14T06:13:55.505Z,88.22
2023-05-14T06:14:55.575Z,88.73
2023-05-14T06:15:55.479Z,89.55
2023-05-14T06:16:55.630Z,89.65
2023-05-14T06:17:55.515Z,88.12
2023-05-14T06:18:55.517Z,88.37
2023-05-14T06:19:55.471Z,88.93
2023-05-14T06:20:55.611Z,88.43
2023-05-14T06:21:55.633Z,87.00
2023-05-14T06:23:30.794Z,86.86
2023-05-14T06:23:55.654Z,86.65
2023-05-14T07:14:37.678Z,82.45
2023-05-14T07:15:38.648Z,81.70
2023-05-14T07:16:38.830Z,82.81
2023-05-14T07:17:38.652Z,83.56
2023-05-14T07:18:38.621Z,84.68
2023-05-14T07:19:38.622Z,82.31
2023-05-14T07:20:38.586Z,82.68
2023-05-14T07:21:38.619Z,83.81
2023-05-14T07:22:38.585Z,83.81
2023-05-14T07:23:38.550Z,83.81
2023-05-14T07:24:38.573Z,81.93
2023-05-14T07:25:38.531Z,81.90
2023-05-14T07:26:38.555Z,82.71
2023-05-14T07:27:38.612Z,82.51
2023-05-14T07:28:38.699Z,83.26
2023-05-14T07:29:38.644Z,82.34
2023-05-14T07:31:14.510Z,81.59
2023-05-14T07:31:38.852Z,82.33
2023-05-14T07:32:38.577Z,80.97
2023-05-14T07:33:38.517Z,78.44
2023-05-14T07:34:38.767Z,79.41
2023-05-14T07:35:38.487Z,78.03
2023-05-14T07:36:38.554Z,78.94
2023-05-14T07:37:39.153Z,78.60
2023-05-14T07:47:57.895Z,71.20
2023-05-14T07:48:57.810Z,72.72
2023-05-14T07:49:57.911Z,70.72
2023-05-14T07:50:57.726Z,71.53
2023-05-14T07:51:57.677Z,71.23
2023-05-14T07:52:57.843Z,71.50
2023-05-14T07:53:57.690Z,71.30
2023-05-14T07:54:57.672Z,70.28
2023-05-14T07:55:57.633Z,71.77
2023-05-14T07:56:57.645Z,71.03
2023-05-14T08:05:39.420Z,69.81
2023-05-14T08:06:39.494Z,68.23
2023-05-14T08:07:39.349Z,67.22
2023-05-14T08:08:39.298Z,67.49
2023-05-14T08:09:39.291Z,68.19
2023-05-14T08:10:39.389Z,68.60
2023-05-14T08:11:39.314Z,67.32
2023-05-14T08:12:39.296Z,68.13
2023-05-14T08:13:39.248Z,67.69
2023-05-14T08:14:39.289Z,68.06
2023-05-14T08:15:39.336Z,68.94
2023-05-14T08:16:40.627Z,65.67
2023-05-14T08:17:40.371Z,66.31
2023-05-14T08:18:40.368Z,67.46
2023-05-14T08:19:40.313Z,67.63
2023-05-14T08:20:40.283Z,65.20
2023-05-14T08:21:40.326Z,65.47
2023-05-14T08:22:40.266Z,65.98
2023-05-14T08:23:40.266Z,65.61
2023-05-14T08:24:40.239Z,64.64
2023-05-14T08:25:40.228Z,65.20
2023-05-14T08:26:40.248Z,64.06
2023-05-14T08:27:40.188Z,65.07
2023-05-14T08:28:40.195Z,65.57
2023-05-14T08:29:40.168Z,66.99
2023-05-14T08:30:40.164Z,63.76
2023-05-14T08:31:40.160Z,65.78
2023-05-14T08:32:40.195Z,65.57
2023-05-14T08:33:40.124Z,65.10
2023-05-14T08:34:40.430Z,66.24
2023-05-14T08:35:40.110Z,68.63
2023-05-14T08:36:40.081Z,67.63
2023-05-14T08:37:40.128Z,66.72
2023-05-14T08:38:40.056Z,67.12
2023-05-14T08:39:40.059Z,67.11
2023-05-14T08:40:40.049Z,69.14
2023-05-14T08:41:40.010Z,68.02
2023-05-14T08:42:40.031Z,66.88
2023-05-14T08:43:40.014Z,67.22
2023-05-14T08:44:40.009Z,67.86
2023-05-14T08:45:39.990Z,67.27
2023-05-14T08:46:39.969Z,65.09
2023-05-14T08:47:39.998Z,63.54
2023-05-14T08:48:39.977Z,61.23
2023-05-14T08:49:39.939Z,63.57
2023-05-14T08:50:39.916Z,60.75
2023-05-14T08:51:39.885Z,62.06
2023-05-14T08:52:39.903Z,60.88
2023-05-14T08:53:40.010Z,61.49
2023-05-14T08:54:39.859Z,65.32
2023-05-14T08:55:39.873Z,67.20
2023-05-14T08:56:39.830Z,64.95
2023-05-14T08:57:39.822Z,62.71
2023-05-14T08:58:39.821Z,59.33
2023-05-14T08:59:39.856Z,56.89
2023-05-14T09:00:39.777Z,58.50
2023-05-14T09:01:39.818Z,60.41
2023-05-14T09:02:39.851Z,59.46
2023-05-14T09:03:39.821Z,61.10
2023-05-14T09:04:39.775Z,60.45
2023-05-14T09:05:39.712Z,63.98
2023-05-14T09:06:39.718Z,63.78
2023-05-14T09:07:39.682Z,64.18
2023-05-14T09:08:39.789Z,64.78
2023-05-14T09:09:39.726Z,63.34
2023-05-14T09:10:39.680Z,61.20
2023-05-14T09:11:39.649Z,62.55
2023-05-14T09:12:39.636Z,60.78
2023-05-14T09:13:39.611Z,60.85
2023-05-14T09:14:39.595Z,58.89
2023-05-14T09:15:39.622Z,58.39
2023-05-14T09:16:39.614Z,58.59
2023-05-14T09:17:39.567Z,58.49
2023-05-14T09:18:39.587Z,58.75
2023-05-14T09:19:39.551Z,59.38
2023-05-14T09:20:39.572Z,59.10
2023-05-14T09:21:39.565Z,59.37
2023-05-14T09:22:39.504Z,60.61
2023-05-14T09:23:39.496Z,62.73
2023-05-14T09:24:39.484Z,63.96
2023-05-14T09:25:39.547Z,66.13
2023-05-14T09:26:39.470Z,64.48
2023-05-14T09:27:39.437Z,63.37
2023-05-14T09:28:39.424Z,63.40
2023-05-14T09:29:39.436Z,62.65
2023-05-14T09:30:39.407Z,63.12
2023-05-14T09:31:39.495Z,64.23
2023-05-14T09:32:39.476Z,63.62
2023-05-14T09:33:39.384Z,63.62
2023-05-14T09:34:39.358Z,65.41
2023-05-14T09:35:39.342Z,65.08
2023-05-14T09:36:39.380Z,63.90
2023-05-14T09:37:39.314Z,62.66
2023-05-14T09:38:39.316Z,62.97
2023-05-14T09:39:39.298Z,61.20
2023-05-14T09:40:39.276Z,61.10
2023-05-14T09:41:39.263Z,61.10
2023-05-14T09:42:39.274Z,62.64
2023-05-14T09:43:39.252Z,59.46
2023-05-14T09:44:39.240Z,62.82
2023-05-14T09:45:39.206Z,61.71
2023-05-14T09:46:39.213Z,59.38
2023-05-14T09:47:39.271Z,59.55
2023-05-14T09:48:39.727Z,59.08
2023-05-14T09:49:39.173Z,60.85
2023-05-14T09:50:39.172Z,61.02
2023-05-14T09:51:39.134Z,60.45
2023-05-14T09:52:39.151Z,58.90
2023-05-14T09:53:39.121Z,60.67
2023-05-14T09:54:39.089Z,62.68
2023-05-14T09:55:39.098Z,58.65
2023-05-14T09:56:39.081Z,62.57
2023-05-14T09:57:39.496Z,62.93
2023-05-14T09:58:39.132Z,63.33
2023-05-14T09:59:39.051Z,63.53
2023-05-14T10:00:39.028Z,64.50
2023-05-14T10:01:39.316Z,64.70
2023-05-14T10:02:39.091Z,66.32
2023-05-14T10:03:39.049Z,64.07
2023-05-14T10:04:39.067Z,62.85
2023-05-14T10:05:38.979Z,63.70
2023-05-14T10:06:38.951Z,64.05
2023-05-14T10:07:38.942Z,62.70
2023-05-14T10:08:38.943Z,63.17
2023-05-14T10:09:38.954Z,63.89
2023-05-14T10:10:38.922Z,60.78
2023-05-14T10:11:38.964Z,59.52
2023-05-14T10:12:38.871Z,58.46
2023-05-14T10:13:38.874Z,57.63
2023-05-14T10:14:39.133Z,58.11
2023-05-14T10:15:38.894Z,63.43
2023-05-14T10:16:38.880Z,61.80
2023-05-14T10:17:38.938Z,60.57
2023-05-14T10:18:38.848Z,56.70
2023-05-14T10:19:38.814Z,58.58
2023-05-14T10:20:38.856Z,57.50
2023-05-14T10:21:38.779Z,55.50
2023-05-14T10:22:38.765Z,57.30
2023-05-14T10:23:38.739Z,54.39
2023-05-14T10:24:38.803Z,55.13
2023-05-14T10:25:38.756Z,56.33
2023-05-14T10:26:38.738Z,56.63
2023-05-14T10:27:38.751Z,58.93
2023-05-14T10:28:38.682Z,60.53
2023-05-14T10:29:38.710Z,60.64
2023-05-14T10:30:38.731Z,59.96
2023-05-14T10:31:38.819Z,64.05
2023-05-14T10:32:38.708Z,62.66
2023-05-14T10:33:38.674Z,62.57
2023-05-14T10:34:38.734Z,63.87
2023-05-14T10:35:38.624Z,63.04
2023-05-14T10:36:38.634Z,62.51
2023-05-14T10:37:38.808Z,61.44
2023-05-14T10:38:38.631Z,61.40
2023-05-14T10:39:38.580Z,61.04
2023-05-14T10:40:38.612Z,57.35
2023-05-14T10:41:38.564Z,57.70
2023-05-14T10:42:38.727Z,56.56
2023-05-14T10:43:39.367Z,56.69
2023-05-14T10:44:38.561Z,57.52
2023-05-14T10:45:38.541Z,60.74
2023-05-14T10:46:38.592Z,59.10
2023-05-14T10:47:38.569Z,58.80
2023-05-14T10:48:38.489Z,57.55
2023-05-14T10:49:43.538Z,59.39
2023-05-14T10:50:38.495Z,58.84
2023-05-14T10:51:38.611Z,58.98
2023-05-14T10:52:39.204Z,57.70
2023-05-14T10:53:38.432Z,57.67
2023-05-14T10:54:38.459Z,55.91
2023-05-14T10:55:38.506Z,58.25
2023-05-14T10:56:38.465Z,59.30
2023-05-14T10:57:38.431Z,59.17
2023-05-14T10:58:38.394Z,60.75
2023-05-14T10:59:38.494Z,58.62
2023-05-14T11:00:38.384Z,56.88
2023-05-14T11:01:38.436Z,56.56
2023-05-14T11:02:38.418Z,54.70
2023-05-14T11:03:38.366Z,54.43
2023-05-14T11:04:38.326Z,55.68
2023-05-14T11:05:38.296Z,56.21
2023-05-14T11:06:38.306Z,57.91
2023-05-14T11:07:38.309Z,58.44
2023-05-14T11:08:38.277Z,54.53
2023-05-14T11:09:38.578Z,54.43
2023-05-14T11:10:39.172Z,54.02
2023-05-14T11:11:38.220Z,54.50
2023-05-14T11:12:38.283Z,53.25
2023-05-14T11:13:38.230Z,54.35
2023-05-14T11:14:38.463Z,55.60
2023-05-14T11:15:39.283Z,55.58
2023-05-14T11:16:38.179Z,56.33
2023-05-14T11:17:38.371Z,55.27
2023-05-14T11:18:38.207Z,55.00
2023-05-14T11:19:38.180Z,55.28
2023-05-14T11:20:38.120Z,58.49
2023-05-14T11:21:38.263Z,57.56
2023-05-14T11:22:38.164Z,58.13
2023-05-14T11:23:38.134Z,53.80
2023-05-14T11:24:38.067Z,57.51
2023-05-14T11:25:38.114Z,57.14
2023-05-14T11:26:38.026Z,55.60
2023-05-14T11:27:38.194Z,55.65
2023-05-14T11:28:38.110Z,56.13
2023-05-14T11:29:38.028Z,52.87
2023-05-14T11:30:38.011Z,52.84
2023-05-14T11:31:38.122Z,51.72
2023-05-14T11:32:38.032Z,51.94
2023-05-14T11:33:38.050Z,50.84
2023-05-14T11:34:37.970Z,51.25
2023-05-14T11:35:37.981Z,51.37
2023-05-14T11:36:37.950Z,53.27
2023-05-14T11:37:37.889Z,54.43
2023-05-14T11:38:37.903Z,53.02
2023-05-14T11:39:38.000Z,55.20
2023-05-14T11:40:37.844Z,54.10
2023-05-14T11:41:37.830Z,53.57
2023-05-14T11:42:37.813Z,51.64
2023-05-14T11:43:37.858Z,53.20
2023-05-14T11:44:37.812Z,55.28
2023-05-14T11:45:37.802Z,55.03
2023-05-14T11:46:37.834Z,51.69
2023-05-14T11:47:37.864Z,52.34
2023-05-14T11:48:37.781Z,53.12
2023-05-14T11:49:37.749Z,51.51
2023-05-14T11:50:37.716Z,52.69
2023-05-14T11:51:37.714Z,59.53
2023-05-14T11:52:37.733Z,55.48
2023-05-14T11:53:37.696Z,56.84
2023-05-14T11:54:37.671Z,55.30
2023-05-14T11:55:37.770Z,51.97
2023-05-14T11:56:37.660Z,56.19
2023-05-14T11:57:37.633Z,55.33
2023-05-14T11:58:37.697Z,55.16
2023-05-14T11:59:37.619Z,56.44
2023-05-14T12:00:37.677Z,55.31
2023-05-14T12:01:37.623Z,56.59
2023-05-14T12:02:37.706Z,56.01
2023-05-14T12:03:37.820Z,56.14
2023-05-14T12:04:37.619Z,59.22
2023-05-14T12:05:37.605Z,62.44
2023-05-14T12:06:37.646Z,56.74
2023-05-14T12:07:37.539Z,54.98
2023-05-14T12:08:37.528Z,55.26
2023-05-14T12:09:37.532Z,55.96
2023-05-14T12:10:37.485Z,56.23
2023-05-14T12:11:37.518Z,58.75
2023-05-14T12:12:37.544Z,56.01
2023-05-14T12:13:37.464Z,54.30
2023-05-14T12:14:37.478Z,54.22
2023-05-14T12:15:37.488Z,53.32
2023-05-14T12:16:38.500Z,52.26
2023-05-14T12:17:38.481Z,53.32
2023-05-14T12:18:37.509Z,53.65
2023-05-14T12:19:37.406Z,55.54
2023-05-14T12:20:37.368Z,55.23
2023-05-14T12:21:37.355Z,53.40
2023-05-14T12:22:37.368Z,52.82
2023-05-14T12:23:37.320Z,54.33
2023-05-14T12:24:37.313Z,56.04
2023-05-14T12:25:37.372Z,56.01
2023-05-14T12:26:37.430Z,54.02
2023-05-14T12:27:37.584Z,53.30
2023-05-14T12:28:38.530Z,50.89
2023-05-14T12:29:37.384Z,52.59
2023-05-14T12:30:37.285Z,51.34
2023-05-14T12:31:37.384Z,50.09
2023-05-14T12:32:37.456Z,51.64
2023-05-14T12:33:37.321Z,52.89
2023-05-14T12:34:37.678Z,54.02
2023-05-14T13:29:16.877Z,78.78
2023-05-14T13:30:18.701Z,77.13
2023-05-14T13:31:18.460Z,77.53
2023-05-14T13:32:17.827Z,78.44
2023-05-14T13:33:18.293Z,78.34
2023-05-14T13:34:18.062Z,79.24
2023-05-14T13:35:17.897Z,78.94
2023-05-14T13:36:17.970Z,79.41
2023-05-14T13:37:19.127Z,80.07
2023-05-14T13:38:19.426Z,77.76
2023-05-14T13:39:18.155Z,78.22
2023-05-14T13:40:18.708Z,72.47
2023-05-14T13:41:18.165Z,70.83
2023-05-14T13:42:18.844Z,71.23
2023-05-14T13:43:18.190Z,74.01
2023-05-14T13:44:18.160Z,70.59
2023-05-14T13:45:18.065Z,68.49
2023-05-14T13:46:17.929Z,69.06
2023-05-14T13:47:18.396Z,70.23
2023-05-14T13:48:17.831Z,65.15
2023-05-14T13:49:17.731Z,64.48
2023-05-14T13:50:17.854Z,62.41
2023-05-14T13:51:17.656Z,62.47
2023-05-14T13:52:17.666Z,65.31
2023-05-14T13:53:17.569Z,63.45
2023-05-14T13:54:17.595Z,64.88
2023-05-14T13:55:17.587Z,60.24
2023-05-14T13:56:17.551Z,58.28
2023-05-14T13:57:18.606Z,58.45
2023-05-14T13:58:17.504Z,57.52
2023-05-14T13:59:17.525Z,56.52
2023-05-14T14:00:17.625Z,58.62
2023-05-14T14:01:17.826Z,55.74
2023-05-14T14:02:17.486Z,53.22
2023-05-14T14:03:17.491Z,54.14
2023-05-14T14:04:17.437Z,55.94
2023-05-14T14:05:18.097Z,57.07
2023-05-14T14:06:17.813Z,58.04
2023-05-14T14:07:17.487Z,60.48
2023-05-14T14:08:23.537Z,58.83
2023-05-14T14:09:18.596Z,60.52
2023-05-14T14:10:17.519Z,61.23
2023-05-14T14:11:17.489Z,63.53
2023-05-14T14:12:17.838Z,65.11
2023-05-14T14:13:17.471Z,66.49
2023-05-14T15:41:00.020Z,81.13
2023-05-14T15:42:01.104Z,82.15
2023-05-14T15:43:01.181Z,82.29
2023-05-14T15:44:01.038Z,82.56
2023-05-14T15:45:00.967Z,83.23
2023-05-14T15:46:00.984Z,82.52
2023-05-14T15:47:00.961Z,82.48
2023-05-14T15:48:00.980Z,82.58
2023-05-14T15:49:01.373Z,80.65
2023-05-14T15:50:00.989Z,79.91
2023-05-14T15:51:00.896Z,79.40
2023-05-14T18:25:23.988Z,83.46
2023-05-14T18:26:24.907Z,85.03
2023-05-14T18:27:25.205Z,81.98
2023-05-14T18:28:24.755Z,77.77
2023-05-14T18:29:25.750Z,76.31
2023-05-14T18:30:24.773Z,76.10
2023-05-14T18:31:24.720Z,75.70
2023-05-14T18:32:24.719Z,75.29
2023-05-14T18:33:24.706Z,73.33
2023-05-14T18:34:25.670Z,73.16
2023-05-14T18:35:24.917Z,72.52
2023-05-14T18:36:24.675Z,71.09
2023-05-14T18:37:24.672Z,71.73
2023-05-14T18:38:24.651Z,71.73
2023-05-14T18:39:24.652Z,71.33
2023-05-14T18:40:24.689Z,71.03
2023-05-14T18:41:24.699Z,71.12
2023-05-14T18:42:24.586Z,71.03
2023-05-14T18:43:24.580Z,70.82
2023-05-14T18:44:24.586Z,70.82
2023-05-14T18:45:24.835Z,70.65
2023-05-14T18:46:24.581Z,70.75
2023-05-14T18:47:24.581Z,71.06
2023-05-14T18:48:24.535Z,70.99
2023-05-14T18:49:24.525Z,70.75
2023-05-14T18:50:24.537Z,71.50
2023-05-14T18:51:24.518Z,72.72
2023-05-14T18:52:24.482Z,72.31
2023-05-14T18:53:25.466Z,72.92